sensor_id;sensor_type;location;lat;lon;timestamp;temperature;humidity
1704;DHT22;849;48.780;9.216;2022-09-03T00:00:27;20.10;73.40
1704;DHT22;849;48.780;9.216;2022-09-03T00:03:23;20.00;73.60
1704;DHT22;849;48.780;9.216;2022-09-03T00:08:57;20.00;74.30
1704;DHT22;849;48.780;9.216;2022-09-03T00:13:59;20.00;73.30
1704;DHT22;849;48.780;9.216;2022-09-03T00:16:33;19.90;73.10
1704;DHT22;849;48.780;9.216;2022-09-03T00:19:02;19.80;72.10
1704;DHT22;849;48.780;9.216;2022-09-03T00:24:03;19.90;72.30
1704;DHT22;849;48.780;9.216;2022-09-03T00:26:33;20.00;72.10
1704;DHT22;849;48.780;9.216;2022-09-03T00:29:14;20.10;71.60
1704;DHT22;849;48.780;9.216;2022-09-03T00:31:45;19.90;71.60
1704;DHT22;849;48.780;9.216;2022-09-03T00:34:33;19.90;71.20
1704;DHT22;849;48.780;9.216;2022-09-03T00:37:00;20.10;71.40
1704;DHT22;849;48.780;9.216;2022-09-03T00:39:28;20.00;71.90
1704;DHT22;849;48.780;9.216;2022-09-03T00:42:13;20.10;72.20
1704;DHT22;849;48.780;9.216;2022-09-03T00:45:00;20.20;72.10
1704;DHT22;849;48.780;9.216;2022-09-03T00:58:24;20.30;73.10
1704;DHT22;849;48.780;9.216;2022-09-03T01:00:54;20.40;73.90
1704;DHT22;849;48.780;9.216;2022-09-03T01:09:10;20.30;74.90
1704;DHT22;849;48.780;9.216;2022-09-03T01:12:17;20.30;74.90
1704;DHT22;849;48.780;9.216;2022-09-03T01:15:31;20.30;75.30
1704;DHT22;849;48.780;9.216;2022-09-03T01:21:08;20.10;75.60
1704;DHT22;849;48.780;9.216;2022-09-03T01:29:23;20.10;77.10
1704;DHT22;849;48.780;9.216;2022-09-03T01:32:08;20.20;76.40
1704;DHT22;849;48.780;9.216;2022-09-03T01:38:15;20.20;77.80
1704;DHT22;849;48.780;9.216;2022-09-03T01:41:16;20.20;78.10
1704;DHT22;849;48.780;9.216;2022-09-03T01:45:55;20.30;81.80
1704;DHT22;849;48.780;9.216;2022-09-03T01:51:15;20.00;81.30
1704;DHT22;849;48.780;9.216;2022-09-03T01:59:48;20.20;84.40
1704;DHT22;849;48.780;9.216;2022-09-03T02:02:23;20.10;83.70
1704;DHT22;849;48.780;9.216;2022-09-03T02:05:00;20.10;83.90
1704;DHT22;849;48.780;9.216;2022-09-03T02:07:32;20.20;84.30
1704;DHT22;849;48.780;9.216;2022-09-03T02:10:00;20.20;84.60
1704;DHT22;849;48.780;9.216;2022-09-03T02:12:30;20.20;84.60
1704;DHT22;849;48.780;9.216;2022-09-03T02:15:04;20.20;84.10
1704;DHT22;849;48.780;9.216;2022-09-03T02:17:32;20.20;83.70
1704;DHT22;849;48.780;9.216;2022-09-03T02:20:03;20.20;83.50
1704;DHT22;849;48.780;9.216;2022-09-03T02:22:31;20.10;81.80
1704;DHT22;849;48.780;9.216;2022-09-03T02:24:57;20.10;81.20
1704;DHT22;849;48.780;9.216;2022-09-03T02:27:23;20.10;80.80
1704;DHT22;849;48.780;9.216;2022-09-03T02:29:48;20.00;79.00
1704;DHT22;849;48.780;9.216;2022-09-03T02:32:15;20.00;77.40
1704;DHT22;849;48.780;9.216;2022-09-03T02:34:41;20.00;77.40
1704;DHT22;849;48.780;9.216;2022-09-03T02:37:13;20.10;76.80
1704;DHT22;849;48.780;9.216;2022-09-03T02:39:39;20.20;76.80
1704;DHT22;849;48.780;9.216;2022-09-03T02:42:05;20.00;77.10
1704;DHT22;849;48.780;9.216;2022-09-03T02:44:34;19.90;76.60
1704;DHT22;849;48.780;9.216;2022-09-03T02:47:04;20.00;77.50
1704;DHT22;849;48.780;9.216;2022-09-03T02:49:30;20.10;78.30
1704;DHT22;849;48.780;9.216;2022-09-03T02:52:01;20.20;78.10
1704;DHT22;849;48.780;9.216;2022-09-03T02:54:31;20.20;77.70
1704;DHT22;849;48.780;9.216;2022-09-03T02:56:58;20.20;77.30
1704;DHT22;849;48.780;9.216;2022-09-03T02:59:24;20.20;77.00
1704;DHT22;849;48.780;9.216;2022-09-03T03:01:53;20.20;77.00
1704;DHT22;849;48.780;9.216;2022-09-03T03:04:19;20.20;77.60
1704;DHT22;849;48.780;9.216;2022-09-03T03:06:45;20.10;77.90
1704;DHT22;849;48.780;9.216;2022-09-03T03:09:10;20.20;79.50
1704;DHT22;849;48.780;9.216;2022-09-03T03:11:36;20.10;79.80
1704;DHT22;849;48.780;9.216;2022-09-03T03:14:02;20.10;80.60
1704;DHT22;849;48.780;9.216;2022-09-03T03:16:28;20.00;82.30
1704;DHT22;849;48.780;9.216;2022-09-03T03:18:55;19.90;82.60
1704;DHT22;849;48.780;9.216;2022-09-03T03:21:21;19.90;82.70
1704;DHT22;849;48.780;9.216;2022-09-03T03:23:47;19.90;82.70
1704;DHT22;849;48.780;9.216;2022-09-03T03:26:15;19.80;82.30
1704;DHT22;849;48.780;9.216;2022-09-03T03:28:46;19.90;81.40
1704;DHT22;849;48.780;9.216;2022-09-03T03:31:16;19.80;81.20
1704;DHT22;849;48.780;9.216;2022-09-03T03:33:42;19.80;81.80
1704;DHT22;849;48.780;9.216;2022-09-03T03:36:10;19.70;81.60
1704;DHT22;849;48.780;9.216;2022-09-03T03:38:36;19.80;82.30
1704;DHT22;849;48.780;9.216;2022-09-03T03:41:13;19.80;82.30
1704;DHT22;849;48.780;9.216;2022-09-03T03:43:40;19.70;82.20
1704;DHT22;849;48.780;9.216;2022-09-03T03:46:06;19.60;82.90
1704;DHT22;849;48.780;9.216;2022-09-03T03:48:32;19.50;83.50
1704;DHT22;849;48.780;9.216;2022-09-03T03:51:03;19.50;82.60
1704;DHT22;849;48.780;9.216;2022-09-03T03:53:36;19.50;84.20
1704;DHT22;849;48.780;9.216;2022-09-03T03:56:05;19.70;84.40
1704;DHT22;849;48.780;9.216;2022-09-03T03:58:32;19.50;84.30
1704;DHT22;849;48.780;9.216;2022-09-03T04:01:15;19.50;84.10
1704;DHT22;849;48.780;9.216;2022-09-03T04:03:42;19.50;83.90
1704;DHT22;849;48.780;9.216;2022-09-03T04:06:09;19.60;84.10
1704;DHT22;849;48.780;9.216;2022-09-03T04:08:37;19.80;87.60
1704;DHT22;849;48.780;9.216;2022-09-03T04:11:05;19.80;87.30
1704;DHT22;849;48.780;9.216;2022-09-03T04:13:37;19.60;88.00
1704;DHT22;849;48.780;9.216;2022-09-03T04:16:17;19.40;88.60
1704;DHT22;849;48.780;9.216;2022-09-03T04:18:43;19.50;89.80
1704;DHT22;849;48.780;9.216;2022-09-03T04:21:15;19.50;90.10
1704;DHT22;849;48.780;9.216;2022-09-03T04:23:43;19.40;90.20
1704;DHT22;849;48.780;9.216;2022-09-03T04:26:10;19.50;90.30
1704;DHT22;849;48.780;9.216;2022-09-03T04:28:39;19.50;90.40
1704;DHT22;849;48.780;9.216;2022-09-03T04:31:08;19.40;90.80
1704;DHT22;849;48.780;9.216;2022-09-03T04:33:35;19.50;91.00
1704;DHT22;849;48.780;9.216;2022-09-03T04:38:38;19.50;91.00
1704;DHT22;849;48.780;9.216;2022-09-03T04:41:06;19.50;91.30
1704;DHT22;849;48.780;9.216;2022-09-03T04:43:32;19.50;91.30
1704;DHT22;849;48.780;9.216;2022-09-03T04:46:00;19.50;91.80
1704;DHT22;849;48.780;9.216;2022-09-03T04:48:26;19.40;91.90
1704;DHT22;849;48.780;9.216;2022-09-03T04:50:53;19.40;92.30
1704;DHT22;849;48.780;9.216;2022-09-03T04:53:20;19.30;92.40
1704;DHT22;849;48.780;9.216;2022-09-03T04:55:45;19.30;93.00
1704;DHT22;849;48.780;9.216;2022-09-03T04:58:11;19.20;93.50
1704;DHT22;849;48.780;9.216;2022-09-03T05:00:37;19.10;93.80
1704;DHT22;849;48.780;9.216;2022-09-03T05:03:03;19.10;94.00
1704;DHT22;849;48.780;9.216;2022-09-03T05:05:30;19.10;94.50
1704;DHT22;849;48.780;9.216;2022-09-03T05:08:01;19.10;94.70
1704;DHT22;849;48.780;9.216;2022-09-03T05:10:28;19.00;95.10
1704;DHT22;849;48.780;9.216;2022-09-03T05:13:01;19.00;95.60
1704;DHT22;849;48.780;9.216;2022-09-03T05:15:29;19.10;96.20
1704;DHT22;849;48.780;9.216;2022-09-03T05:18:00;19.10;96.60
1704;DHT22;849;48.780;9.216;2022-09-03T05:20:29;19.20;97.00
1704;DHT22;849;48.780;9.216;2022-09-03T05:22:56;19.10;97.40
1704;DHT22;849;48.780;9.216;2022-09-03T05:25:23;19.20;97.80
1704;DHT22;849;48.780;9.216;2022-09-03T05:27:49;19.30;98.10
1704;DHT22;849;48.780;9.216;2022-09-03T05:30:14;19.30;98.20
1704;DHT22;849;48.780;9.216;2022-09-03T05:32:41;19.30;98.40
1704;DHT22;849;48.780;9.216;2022-09-03T05:35:08;19.20;98.20
1704;DHT22;849;48.780;9.216;2022-09-03T05:37:35;19.30;98.10
1704;DHT22;849;48.780;9.216;2022-09-03T05:40:02;19.30;97.80
1704;DHT22;849;48.780;9.216;2022-09-03T05:42:28;19.40;97.90
1704;DHT22;849;48.780;9.216;2022-09-03T05:44:55;19.50;98.80
1704;DHT22;849;48.780;9.216;2022-09-03T05:47:21;19.60;99.40
1704;DHT22;849;48.780;9.216;2022-09-03T05:49:47;19.60;99.40
1704;DHT22;849;48.780;9.216;2022-09-03T05:52:12;19.70;99.80
1704;DHT22;849;48.780;9.216;2022-09-03T05:54:38;19.80;99.70
1704;DHT22;849;48.780;9.216;2022-09-03T05:57:04;19.90;99.20
1704;DHT22;849;48.780;9.216;2022-09-03T05:59:30;19.90;99.50
1704;DHT22;849;48.780;9.216;2022-09-03T06:01:55;19.90;99.70
1704;DHT22;849;48.780;9.216;2022-09-03T06:04:21;19.80;99.90
1704;DHT22;849;48.780;9.216;2022-09-03T06:06:47;19.90;99.90
1704;DHT22;849;48.780;9.216;2022-09-03T06:09:16;19.70;99.90
1704;DHT22;849;48.780;9.216;2022-09-03T06:11:43;19.50;99.80
1704;DHT22;849;48.780;9.216;2022-09-03T06:14:11;19.30;98.30
1704;DHT22;849;48.780;9.216;2022-09-03T06:16:40;19.30;98.30
1704;DHT22;849;48.780;9.216;2022-09-03T06:19:06;19.60;99.00
1704;DHT22;849;48.780;9.216;2022-09-03T06:21:39;19.70;99.40
1704;DHT22;849;48.780;9.216;2022-09-03T06:24:17;19.80;99.20
1704;DHT22;849;48.780;9.216;2022-09-03T06:26:43;19.90;98.90
1704;DHT22;849;48.780;9.216;2022-09-03T06:29:10;19.90;98.80
1704;DHT22;849;48.780;9.216;2022-09-03T06:31:36;20.10;99.20
1704;DHT22;849;48.780;9.216;2022-09-03T06:34:02;20.10;98.90
1704;DHT22;849;48.780;9.216;2022-09-03T06:36:27;20.10;98.80
1704;DHT22;849;48.780;9.216;2022-09-03T06:38:54;20.20;98.60
1704;DHT22;849;48.780;9.216;2022-09-03T06:41:26;20.40;98.80
1704;DHT22;849;48.780;9.216;2022-09-03T06:44:01;20.40;98.40
1704;DHT22;849;48.780;9.216;2022-09-03T06:46:29;20.50;97.90
1704;DHT22;849;48.780;9.216;2022-09-03T06:48:55;20.60;98.10
1704;DHT22;849;48.780;9.216;2022-09-03T06:51:23;20.70;97.70
1704;DHT22;849;48.780;9.216;2022-09-03T06:53:52;20.50;96.40
1704;DHT22;849;48.780;9.216;2022-09-03T06:56:21;20.60;96.50
1704;DHT22;849;48.780;9.216;2022-09-03T06:59:02;20.70;96.40
1704;DHT22;849;48.780;9.216;2022-09-03T07:01:29;20.90;96.70
1704;DHT22;849;48.780;9.216;2022-09-03T07:03:57;20.90;96.00
1704;DHT22;849;48.780;9.216;2022-09-03T07:06:27;20.90;96.10
1704;DHT22;849;48.780;9.216;2022-09-03T07:08:53;21.00;95.70
1704;DHT22;849;48.780;9.216;2022-09-03T07:11:23;21.00;96.10
1704;DHT22;849;48.780;9.216;2022-09-03T07:13:52;21.10;96.10
1704;DHT22;849;48.780;9.216;2022-09-03T07:16:36;21.00;95.80
1704;DHT22;849;48.780;9.216;2022-09-03T07:19:03;21.00;95.50
1704;DHT22;849;48.780;9.216;2022-09-03T07:21:31;21.20;96.00
1704;DHT22;849;48.780;9.216;2022-09-03T07:23:58;21.30;95.60
1704;DHT22;849;48.780;9.216;2022-09-03T07:26:29;21.30;95.50
1704;DHT22;849;48.780;9.216;2022-09-03T07:28:56;21.20;95.40
1704;DHT22;849;48.780;9.216;2022-09-03T07:31:32;21.00;96.20
1704;DHT22;849;48.780;9.216;2022-09-03T07:34:06;20.90;97.10
1704;DHT22;849;48.780;9.216;2022-09-03T07:36:40;21.10;98.20
1704;DHT22;849;48.780;9.216;2022-09-03T07:39:06;21.20;97.90
1704;DHT22;849;48.780;9.216;2022-09-03T07:41:32;21.10;97.70
1704;DHT22;849;48.780;9.216;2022-09-03T07:43:59;21.30;97.80
1704;DHT22;849;48.780;9.216;2022-09-03T07:46:32;21.10;97.30
1704;DHT22;849;48.780;9.216;2022-09-03T07:48:59;21.30;96.90
1704;DHT22;849;48.780;9.216;2022-09-03T07:51:28;21.20;96.70
1704;DHT22;849;48.780;9.216;2022-09-03T07:53:59;21.10;97.20
1704;DHT22;849;48.780;9.216;2022-09-03T07:56:26;21.20;97.40
1704;DHT22;849;48.780;9.216;2022-09-03T07:58:52;21.30;97.80
1704;DHT22;849;48.780;9.216;2022-09-03T08:01:22;21.70;98.10
1704;DHT22;849;48.780;9.216;2022-09-03T08:03:50;21.90;97.60
1704;DHT22;849;48.780;9.216;2022-09-03T08:06:17;22.00;97.80
1704;DHT22;849;48.780;9.216;2022-09-03T08:08:43;22.10;96.60
1704;DHT22;849;48.780;9.216;2022-09-03T08:11:17;22.30;97.30
1704;DHT22;849;48.780;9.216;2022-09-03T08:14:00;21.90;96.40
1704;DHT22;849;48.780;9.216;2022-09-03T08:16:35;21.70;97.20
1704;DHT22;849;48.780;9.216;2022-09-03T08:19:01;21.90;97.60
1704;DHT22;849;48.780;9.216;2022-09-03T08:21:27;22.20;97.00
1704;DHT22;849;48.780;9.216;2022-09-03T08:23:54;22.40;96.20
1704;DHT22;849;48.780;9.216;2022-09-03T08:26:37;22.40;95.10
1704;DHT22;849;48.780;9.216;2022-09-03T08:29:04;22.40;95.60
1704;DHT22;849;48.780;9.216;2022-09-03T08:31:30;22.60;97.00
1704;DHT22;849;48.780;9.216;2022-09-03T08:33:58;22.50;96.00
1704;DHT22;849;48.780;9.216;2022-09-03T08:36:29;22.60;96.60
1704;DHT22;849;48.780;9.216;2022-09-03T08:38:57;22.80;95.80
1704;DHT22;849;48.780;9.216;2022-09-03T08:44:23;22.60;95.40
1704;DHT22;849;48.780;9.216;2022-09-03T08:52:36;23.10;96.50
1704;DHT22;849;48.780;9.216;2022-09-03T08:55:26;23.00;95.60
1704;DHT22;849;48.780;9.216;2022-09-03T08:58:11;23.40;95.60
1704;DHT22;849;48.780;9.216;2022-09-03T09:00:41;23.40;93.70
1704;DHT22;849;48.780;9.216;2022-09-03T09:03:29;23.30;94.90
1704;DHT22;849;48.780;9.216;2022-09-03T09:09:25;23.60;94.60
1704;DHT22;849;48.780;9.216;2022-09-03T09:20:14;22.80;93.90
1704;DHT22;849;48.780;9.216;2022-09-03T09:22:45;22.60;94.60
1704;DHT22;849;48.780;9.216;2022-09-03T09:25:19;22.60;94.90
1704;DHT22;849;48.780;9.216;2022-09-03T09:28:18;22.60;94.90
1704;DHT22;849;48.780;9.216;2022-09-03T09:30:49;22.40;94.50
1704;DHT22;849;48.780;9.216;2022-09-03T09:33:16;22.40;94.30
1704;DHT22;849;48.780;9.216;2022-09-03T09:35:43;22.30;94.60
1704;DHT22;849;48.780;9.216;2022-09-03T09:38:10;22.20;94.80
1704;DHT22;849;48.780;9.216;2022-09-03T09:40:42;22.40;94.60
1704;DHT22;849;48.780;9.216;2022-09-03T09:43:10;22.40;95.20
1704;DHT22;849;48.780;9.216;2022-09-03T09:45:39;22.50;95.20
1704;DHT22;849;48.780;9.216;2022-09-03T09:48:15;22.30;95.20
1704;DHT22;849;48.780;9.216;2022-09-03T09:50:42;22.30;95.80
1704;DHT22;849;48.780;9.216;2022-09-03T09:53:10;22.30;96.20
1704;DHT22;849;48.780;9.216;2022-09-03T09:55:54;22.50;95.20
1704;DHT22;849;48.780;9.216;2022-09-03T09:58:21;22.40;95.30
1704;DHT22;849;48.780;9.216;2022-09-03T10:01:11;22.30;95.00
1704;DHT22;849;48.780;9.216;2022-09-03T10:03:47;22.50;94.90
1704;DHT22;849;48.780;9.216;2022-09-03T10:06:14;22.70;94.10
1704;DHT22;849;48.780;9.216;2022-09-03T10:09:10;22.60;94.60
1704;DHT22;849;48.780;9.216;2022-09-03T10:11:39;22.60;94.10
1704;DHT22;849;48.780;9.216;2022-09-03T10:14:22;22.80;94.50
1704;DHT22;849;48.780;9.216;2022-09-03T10:16:55;23.20;95.20
1704;DHT22;849;48.780;9.216;2022-09-03T10:19:39;23.50;93.60
1704;DHT22;849;48.780;9.216;2022-09-03T10:22:09;23.60;92.90
1704;DHT22;849;48.780;9.216;2022-09-03T10:24:57;23.40;92.60
1704;DHT22;849;48.780;9.216;2022-09-03T10:27:25;23.10;92.30
1704;DHT22;849;48.780;9.216;2022-09-03T10:29:51;22.90;92.80
1704;DHT22;849;48.780;9.216;2022-09-03T10:37:50;22.80;93.30
1704;DHT22;849;48.780;9.216;2022-09-03T10:40:29;22.90;93.10
1704;DHT22;849;48.780;9.216;2022-09-03T10:43:18;23.10;92.70
1704;DHT22;849;48.780;9.216;2022-09-03T10:51:03;23.10;92.40
1704;DHT22;849;48.780;9.216;2022-09-03T10:59:21;23.50;91.50
1704;DHT22;849;48.780;9.216;2022-09-03T11:04:43;23.80;91.20
1704;DHT22;849;48.780;9.216;2022-09-03T11:07:12;23.80;91.00
1704;DHT22;849;48.780;9.216;2022-09-03T11:09:44;23.90;90.40
1704;DHT22;849;48.780;9.216;2022-09-03T11:12:17;24.00;90.10
1704;DHT22;849;48.780;9.216;2022-09-03T11:14:51;24.20;89.50
1704;DHT22;849;48.780;9.216;2022-09-03T11:17:24;23.80;90.00
1704;DHT22;849;48.780;9.216;2022-09-03T11:22:33;23.50;90.40
1704;DHT22;849;48.780;9.216;2022-09-03T11:25:01;23.50;91.00
1704;DHT22;849;48.780;9.216;2022-09-03T11:30:10;23.70;90.20
1704;DHT22;849;48.780;9.216;2022-09-03T11:32:54;24.00;90.80
1704;DHT22;849;48.780;9.216;2022-09-03T11:35:28;23.80;91.00
1704;DHT22;849;48.780;9.216;2022-09-03T11:38:03;24.00;90.60
1704;DHT22;849;48.780;9.216;2022-09-03T11:40:35;24.10;90.80
1704;DHT22;849;48.780;9.216;2022-09-03T11:43:06;24.40;89.40
1704;DHT22;849;48.780;9.216;2022-09-03T11:45:33;24.40;89.00
1704;DHT22;849;48.780;9.216;2022-09-03T11:48:00;24.70;90.00
1704;DHT22;849;48.780;9.216;2022-09-03T11:55:54;24.40;90.10
1704;DHT22;849;48.780;9.216;2022-09-03T11:58:30;24.30;90.40
1704;DHT22;849;48.780;9.216;2022-09-03T12:01:11;24.30;90.40
1704;DHT22;849;48.780;9.216;2022-09-03T12:09:05;24.20;90.70
1704;DHT22;849;48.780;9.216;2022-09-03T12:11:40;24.10;90.90
1704;DHT22;849;48.780;9.216;2022-09-03T12:19:52;24.30;91.50
1704;DHT22;849;48.780;9.216;2022-09-03T12:22:21;24.20;91.70
1704;DHT22;849;48.780;9.216;2022-09-03T12:24:47;24.10;91.80
1704;DHT22;849;48.780;9.216;2022-09-03T12:27:23;24.10;93.00
1704;DHT22;849;48.780;9.216;2022-09-03T12:29:55;24.10;93.80
1704;DHT22;849;48.780;9.216;2022-09-03T12:32:27;24.00;94.20
1704;DHT22;849;48.780;9.216;2022-09-03T12:34:54;23.90;96.30
1704;DHT22;849;48.780;9.216;2022-09-03T12:37:22;23.50;98.10
1704;DHT22;849;48.780;9.216;2022-09-03T12:39:51;23.40;98.40
1704;DHT22;849;48.780;9.216;2022-09-03T12:42:28;23.20;99.60
1704;DHT22;849;48.780;9.216;2022-09-03T12:44:55;22.90;99.90
1704;DHT22;849;48.780;9.216;2022-09-03T12:47:23;22.90;99.90
1704;DHT22;849;48.780;9.216;2022-09-03T12:49:51;22.80;99.90
1704;DHT22;849;48.780;9.216;2022-09-03T12:53:11;22.30;99.90
1704;DHT22;849;48.780;9.216;2022-09-03T12:58:10;22.30;99.90
1704;DHT22;849;48.780;9.216;2022-09-03T13:01:27;22.20;99.90
1704;DHT22;849;48.780;9.216;2022-09-03T13:03:49;22.20;99.90
1704;DHT22;849;48.780;9.216;2022-09-03T13:06:21;22.20;99.90
1704;DHT22;849;48.780;9.216;2022-09-03T13:09:07;22.10;99.90
1704;DHT22;849;48.780;9.216;2022-09-03T13:11:34;22.00;99.90
1704;DHT22;849;48.780;9.216;2022-09-03T13:14:06;21.90;99.90
1704;DHT22;849;48.780;9.216;2022-09-03T13:27:25;22.10;99.90
1704;DHT22;849;48.780;9.216;2022-09-03T13:32:49;22.40;99.90
1704;DHT22;849;48.780;9.216;2022-09-03T13:38:23;22.40;99.90
1704;DHT22;849;48.780;9.216;2022-09-03T13:41:16;22.50;99.90
1704;DHT22;849;48.780;9.216;2022-09-03T13:43:51;22.50;99.90
1704;DHT22;849;48.780;9.216;2022-09-03T13:49:38;23.00;99.90
1704;DHT22;849;48.780;9.216;2022-09-03T14:01:03;23.40;99.90
1704;DHT22;849;48.780;9.216;2022-09-03T14:03:34;23.40;99.90
1704;DHT22;849;48.780;9.216;2022-09-03T14:06:18;23.10;99.90
1704;DHT22;849;48.780;9.216;2022-09-03T14:18:00;23.80;99.90
1704;DHT22;849;48.780;9.216;2022-09-03T14:20:43;23.90;99.90
1704;DHT22;849;48.780;9.216;2022-09-03T14:23:35;23.80;99.90
1704;DHT22;849;48.780;9.216;2022-09-03T14:26:05;24.60;99.90
1704;DHT22;849;48.780;9.216;2022-09-03T14:28:37;26.20;99.90
1704;DHT22;849;48.780;9.216;2022-09-03T14:39:30;30.30;90.80
1704;DHT22;849;48.780;9.216;2022-09-03T14:48:05;28.10;93.40
1704;DHT22;849;48.780;9.216;2022-09-03T14:51:06;27.40;94.60
1704;DHT22;849;48.780;9.216;2022-09-03T14:56:39;27.00;94.90
1704;DHT22;849;48.780;9.216;2022-09-03T15:00:03;26.00;96.40
1704;DHT22;849;48.780;9.216;2022-09-03T15:13:10;26.20;99.90
1704;DHT22;849;48.780;9.216;2022-09-03T15:24:03;29.00;94.40
1704;DHT22;849;48.780;9.216;2022-09-03T15:26:55;30.50;90.20
1704;DHT22;849;48.780;9.216;2022-09-03T15:29:57;30.40;84.30
1704;DHT22;849;48.780;9.216;2022-09-03T15:35:51;28.50;87.50
1704;DHT22;849;48.780;9.216;2022-09-03T15:38:44;27.70;90.60
1704;DHT22;849;48.780;9.216;2022-09-03T15:43:58;29.00;87.60
1704;DHT22;849;48.780;9.216;2022-09-03T15:49:02;32.60;72.50
1704;DHT22;849;48.780;9.216;2022-09-03T15:51:34;33.50;63.90
1704;DHT22;849;48.780;9.216;2022-09-03T15:54:09;34.10;61.40
1704;DHT22;849;48.780;9.216;2022-09-03T15:59:22;31.10;65.10
1704;DHT22;849;48.780;9.216;2022-09-03T16:04:49;28.30;75.10
1704;DHT22;849;48.780;9.216;2022-09-03T16:07:29;26.90;81.70
1704;DHT22;849;48.780;9.216;2022-09-03T16:15:21;25.20;91.50
1704;DHT22;849;48.780;9.216;2022-09-03T16:18:22;25.30;93.30
1704;DHT22;849;48.780;9.216;2022-09-03T16:21:05;25.80;92.10
1704;DHT22;849;48.780;9.216;2022-09-03T16:26:14;25.70;92.80
1704;DHT22;849;48.780;9.216;2022-09-03T16:29:07;25.50;93.90
1704;DHT22;849;48.780;9.216;2022-09-03T16:34:11;24.90;96.10
1704;DHT22;849;48.780;9.216;2022-09-03T16:50:05;24.50;99.90
1704;DHT22;849;48.780;9.216;2022-09-03T16:53:09;24.50;99.90
1704;DHT22;849;48.780;9.216;2022-09-03T16:58:36;24.60;99.90
1704;DHT22;849;48.780;9.216;2022-09-03T17:01:38;24.70;99.90
1704;DHT22;849;48.780;9.216;2022-09-03T17:10:06;24.70;99.90
1704;DHT22;849;48.780;9.216;2022-09-03T17:13:07;24.70;99.90
1704;DHT22;849;48.780;9.216;2022-09-03T17:15:31;24.70;99.90
1704;DHT22;849;48.780;9.216;2022-09-03T17:18:25;24.60;99.90
1704;DHT22;849;48.780;9.216;2022-09-03T17:48:46;23.80;99.90
1704;DHT22;849;48.780;9.216;2022-09-03T17:53:56;23.20;99.90
1704;DHT22;849;48.780;9.216;2022-09-03T17:59:46;22.90;99.90
1704;DHT22;849;48.780;9.216;2022-09-03T18:02:36;23.00;99.90
1704;DHT22;849;48.780;9.216;2022-09-03T18:07:53;22.50;99.90
1704;DHT22;849;48.780;9.216;2022-09-03T18:21:31;22.30;99.90
1704;DHT22;849;48.780;9.216;2022-09-03T18:24:27;22.20;99.90
1704;DHT22;849;48.780;9.216;2022-09-03T18:27:20;22.20;99.90
1704;DHT22;849;48.780;9.216;2022-09-03T18:30:10;22.30;99.90
1704;DHT22;849;48.780;9.216;2022-09-03T18:32:55;22.20;99.90
1704;DHT22;849;48.780;9.216;2022-09-03T18:35:42;22.10;99.90
1704;DHT22;849;48.780;9.216;2022-09-03T18:38:30;22.10;99.90
1704;DHT22;849;48.780;9.216;2022-09-03T18:41:19;21.90;99.90
1704;DHT22;849;48.780;9.216;2022-09-03T18:44:16;21.90;99.90
1704;DHT22;849;48.780;9.216;2022-09-03T18:47:41;21.80;99.90
1704;DHT22;849;48.780;9.216;2022-09-03T18:51:06;21.80;99.90
1704;DHT22;849;48.780;9.216;2022-09-03T18:54:06;21.80;99.90
1704;DHT22;849;48.780;9.216;2022-09-03T18:56:53;21.60;99.90
1704;DHT22;849;48.780;9.216;2022-09-03T19:00:04;21.50;99.90
1704;DHT22;849;48.780;9.216;2022-09-03T19:06:15;21.40;99.90
1704;DHT22;849;48.780;9.216;2022-09-03T19:15:23;21.30;99.90
1704;DHT22;849;48.780;9.216;2022-09-03T19:21:49;21.30;99.90
1704;DHT22;849;48.780;9.216;2022-09-03T19:24:34;21.30;99.90
1704;DHT22;849;48.780;9.216;2022-09-03T19:27:30;21.30;99.90
1704;DHT22;849;48.780;9.216;2022-09-03T19:30:23;21.20;99.90
1704;DHT22;849;48.780;9.216;2022-09-03T19:33:18;21.10;99.90
1704;DHT22;849;48.780;9.216;2022-09-03T19:42:02;21.10;99.90
1704;DHT22;849;48.780;9.216;2022-09-03T19:45:00;21.20;99.90
1704;DHT22;849;48.780;9.216;2022-09-03T19:54:02;21.20;99.90
1704;DHT22;849;48.780;9.216;2022-09-03T19:56:48;21.10;99.90
1704;DHT22;849;48.780;9.216;2022-09-03T19:59:37;21.10;99.90
1704;DHT22;849;48.780;9.216;2022-09-03T20:02:22;21.00;99.90
1704;DHT22;849;48.780;9.216;2022-09-03T20:05:10;20.90;99.90
1704;DHT22;849;48.780;9.216;2022-09-03T20:07:59;20.80;99.90
1704;DHT22;849;48.780;9.216;2022-09-03T20:10:44;20.80;99.90
1704;DHT22;849;48.780;9.216;2022-09-03T20:13:14;20.80;99.90
1704;DHT22;849;48.780;9.216;2022-09-03T20:16:12;20.80;99.90
1704;DHT22;849;48.780;9.216;2022-09-03T20:19:08;20.80;99.90
1704;DHT22;849;48.780;9.216;2022-09-03T20:30:18;20.70;99.90
1704;DHT22;849;48.780;9.216;2022-09-03T20:41:16;20.70;99.90
1704;DHT22;849;48.780;9.216;2022-09-03T20:44:08;20.70;99.90
1704;DHT22;849;48.780;9.216;2022-09-03T20:54:50;20.50;99.90
1704;DHT22;849;48.780;9.216;2022-09-03T21:00:21;20.70;99.90
1704;DHT22;849;48.780;9.216;2022-09-03T21:03:08;20.50;99.90
1704;DHT22;849;48.780;9.216;2022-09-03T21:05:52;20.60;99.90
1704;DHT22;849;48.780;9.216;2022-09-03T21:14:17;20.60;99.90
1704;DHT22;849;48.780;9.216;2022-09-03T21:16:58;20.60;99.90
1704;DHT22;849;48.780;9.216;2022-09-03T21:25:03;20.50;99.90
1704;DHT22;849;48.780;9.216;2022-09-03T21:27:42;20.50;99.90
1704;DHT22;849;48.780;9.216;2022-09-03T21:30:16;20.60;99.90
1704;DHT22;849;48.780;9.216;2022-09-03T21:32:59;20.50;99.90
1704;DHT22;849;48.780;9.216;2022-09-03T21:35:29;20.60;99.90
1704;DHT22;849;48.780;9.216;2022-09-03T21:37:59;20.50;99.90
1704;DHT22;849;48.780;9.216;2022-09-03T21:40:28;20.50;99.90
1704;DHT22;849;48.780;9.216;2022-09-03T21:42:58;20.60;99.90
1704;DHT22;849;48.780;9.216;2022-09-03T21:48:15;20.60;99.90
1704;DHT22;849;48.780;9.216;2022-09-03T21:53:25;20.60;99.90
1704;DHT22;849;48.780;9.216;2022-09-03T22:03:53;20.30;99.90
1704;DHT22;849;48.780;9.216;2022-09-03T22:06:29;20.50;99.90
1704;DHT22;849;48.780;9.216;2022-09-03T22:09:17;20.40;99.90
1704;DHT22;849;48.780;9.216;2022-09-03T22:14:36;20.50;99.90
1704;DHT22;849;48.780;9.216;2022-09-03T22:19:58;20.50;99.90
1704;DHT22;849;48.780;9.216;2022-09-03T22:22:26;20.50;99.90
1704;DHT22;849;48.780;9.216;2022-09-03T22:25:10;20.50;99.90
1704;DHT22;849;48.780;9.216;2022-09-03T22:31:00;20.00;99.90
1704;DHT22;849;48.780;9.216;2022-09-03T22:33:50;19.60;99.90
1704;DHT22;849;48.780;9.216;2022-09-03T22:36:36;19.70;99.90
1704;DHT22;849;48.780;9.216;2022-09-03T22:45:07;20.20;99.90
1704;DHT22;849;48.780;9.216;2022-09-03T22:47:58;20.50;99.90
1704;DHT22;849;48.780;9.216;2022-09-03T22:50:27;20.40;99.90
1704;DHT22;849;48.780;9.216;2022-09-03T22:56:08;20.50;99.90
1704;DHT22;849;48.780;9.216;2022-09-03T22:58:41;20.60;99.90
1704;DHT22;849;48.780;9.216;2022-09-03T23:01:17;20.60;99.90
1704;DHT22;849;48.780;9.216;2022-09-03T23:03:48;20.50;99.90
1704;DHT22;849;48.780;9.216;2022-09-03T23:06:24;20.30;99.90
1704;DHT22;849;48.780;9.216;2022-09-03T23:09:09;20.20;99.90
1704;DHT22;849;48.780;9.216;2022-09-03T23:11:50;20.20;99.90
1704;DHT22;849;48.780;9.216;2022-09-03T23:14:33;20.30;99.90
1704;DHT22;849;48.780;9.216;2022-09-03T23:17:08;20.50;99.90
1704;DHT22;849;48.780;9.216;2022-09-03T23:19:42;20.40;99.90
1704;DHT22;849;48.780;9.216;2022-09-03T23:24:56;20.20;99.90
1704;DHT22;849;48.780;9.216;2022-09-03T23:27:33;20.20;99.90